Time;durP1;ratioP1;P1;durP2;ratioP2;P2;SDS_P1;SDS_P2;PMS_P1;PMS_P2;Temp;Humidity;BMP_temperature;BMP_pressure;BME280_temperature;BME280_humidity;BME280_pressure;Samples;Min_cycle;Max_cycle;Signal;HPM_P1;HPM_P2
2022/03/24 00:00:23;;;;;;;;;;;22.90;35.50;;;;;;5070132;28;19962;-55
2022/03/24 00:02:49;;;;;;;;;;;22.90;35.50;;;;;;5066565;28;19920;-55
2022/03/24 00:05:14;;;;;;;;;;;22.90;35.50;;;;;;5067939;28;19923;-54
2022/03/24 00:07:41;;;;;;;;;;;22.90;35.60;;;;;;5067920;28;19928;-54
2022/03/24 00:10:07;;;;;;;;;;;22.80;35.60;;;;;;5069136;28;19916;-55
2022/03/24 00:12:34;;;;;;;;;;;22.80;35.60;;;;;;5067959;28;19963;-54
2022/03/24 00:14:59;;;;;;;;;;;22.90;35.70;;;;;;5066022;28;19947;-54
2022/03/24 00:17:24;;;;;;;;;;;22.80;35.50;;;;;;5067640;28;20406;-54
2022/03/24 00:19:50;;;;;;;;;;;22.80;35.50;;;;;;5070131;28;19917;-54
2022/03/24 00:22:15;;;;;;;;;;;22.70;35.70;;;;;;5066970;28;19935;-52
2022/03/24 00:24:42;;;;;;;;;;;22.80;35.70;;;;;;5067591;28;19920;-54
2022/03/24 00:27:07;;;;;;;;;;;22.70;35.60;;;;;;5065486;28;19916;-54
2022/03/24 00:29:33;;;;;;;;;;;22.70;35.60;;;;;;5067733;28;19935;-53
2022/03/24 00:31:58;;;;;;;;;;;22.70;35.70;;;;;;5064753;28;19944;-53
2022/03/24 00:34:24;;;;;;;;;;;22.70;35.50;;;;;;5068957;28;19920;-53
2022/03/24 00:36:49;;;;;;;;;;;22.70;35.50;;;;;;5070049;28;19923;-54
2022/03/24 00:39:14;;;;;;;;;;;22.70;35.50;;;;;;5063406;28;19912;-54
2022/03/24 00:41:40;;;;;;;;;;;22.70;35.50;;;;;;5068397;28;19940;-54
2022/03/24 00:44:07;;;;;;;;;;;22.70;35.50;;;;;;5070275;28;19923;-53
2022/03/24 00:46:33;;;;;;;;;;;22.70;35.50;;;;;;5069088;28;19982;-53
2022/03/24 00:48:58;;;;;;;;;;;22.70;35.50;;;;;;5069273;28;19979;-53
2022/03/24 00:51:24;;;;;;;;;;;22.70;35.50;;;;;;5068797;28;19999;-53
2022/03/24 00:53:49;;;;;;;;;;;22.70;35.40;;;;;;5065978;28;19920;-53
2022/03/24 00:56:15;;;;;;;;;;;22.70;35.40;;;;;;5069817;28;19919;-54
2022/03/24 00:58:40;;;;;;;;;;;22.60;35.30;;;;;;5066159;28;19920;-53
2022/03/24 01:01:09;;;;;;;;;;;22.70;35.50;;;;;;5069694;28;19920;-53
2022/03/24 01:03:36;;;;;;;;;;;22.60;35.40;;;;;;5068139;28;19927;-53
2022/03/24 01:06:01;;;;;;;;;;;22.60;35.50;;;;;;5068458;28;20346;-54
2022/03/24 01:08:27;;;;;;;;;;;22.60;35.60;;;;;;5067611;28;19928;-53
2022/03/24 01:10:55;;;;;;;;;;;22.50;35.50;;;;;;5068714;28;19919;-54
2022/03/24 01:13:21;;;;;;;;;;;22.60;35.50;;;;;;5067121;28;20030;-54
2022/03/24 01:15:47;;;;;;;;;;;22.60;35.30;;;;;;5067264;28;19913;-53
2022/03/24 01:18:14;;;;;;;;;;;22.60;35.30;;;;;;5068184;28;19912;-54
2022/03/24 01:20:39;;;;;;;;;;;22.50;35.40;;;;;;5069268;28;19931;-53
2022/03/24 01:23:05;;;;;;;;;;;22.60;35.30;;;;;;5066529;28;19916;-53
2022/03/24 01:25:30;;;;;;;;;;;22.60;35.30;;;;;;5071828;28;19995;-53
2022/03/24 01:27:56;;;;;;;;;;;22.50;35.40;;;;;;5069524;28;19916;-54
2022/03/24 01:30:21;;;;;;;;;;;22.50;35.40;;;;;;5069324;28;19913;-54
2022/03/24 01:32:47;;;;;;;;;;;22.50;35.30;;;;;;5071040;28;19916;-53
2022/03/24 01:35:12;;;;;;;;;;;22.50;35.20;;;;;;5072144;28;20158;-54
2022/03/24 01:37:38;;;;;;;;;;;22.50;36.00;;;;;;5071219;28;19912;-54
2022/03/24 01:40:04;;;;;;;;;;;22.50;35.20;;;;;;5073231;28;19913;-54
2022/03/24 01:42:32;;;;;;;;;;;22.50;35.30;;;;;;5071589;28;19927;-54
2022/03/24 01:44:57;;;;;;;;;;;22.50;35.30;;;;;;5069095;28;19921;-54
2022/03/24 01:47:23;;;;;;;;;;;22.50;35.30;;;;;;5069812;28;20058;-54
2022/03/24 01:49:48;;;;;;;;;;;22.50;35.30;;;;;;5068836;28;19912;-54
2022/03/24 01:52:15;;;;;;;;;;;22.50;35.30;;;;;;5071554;28;19916;-54
2022/03/24 01:54:44;;;;;;;;;;;22.50;35.40;;;;;;5068393;28;19912;-54
2022/03/24 01:57:10;;;;;;;;;;;22.40;35.40;;;;;;5070589;28;19916;-54
2022/03/24 01:59:37;;;;;;;;;;;22.40;35.40;;;;;;5071601;28;19921;-54
2022/03/24 02:02:03;;;;;;;;;;;22.40;35.40;;;;;;5072237;28;20323;-54
2022/03/24 02:04:30;;;;;;;;;;;22.40;35.40;;;;;;5068880;28;20384;-54
2022/03/24 02:06:55;;;;;;;;;;;22.40;35.40;;;;;;5071358;28;19979;-54
2022/03/24 02:09:21;;;;;;;;;;;22.30;35.20;;;;;;5068265;28;20000;-54
2022/03/24 02:11:46;;;;;;;;;;;22.30;35.40;;;;;;5070401;28;19921;-54
2022/03/24 02:14:12;;;;;;;;;;;22.30;35.40;;;;;;5071062;28;19913;-54
2022/03/24 02:16:38;;;;;;;;;;;22.20;35.30;;;;;;5071593;28;20357;-54
2022/03/24 02:19:17;;;;;;;;;;;22.20;35.40;;;;;;5071661;28;19912;-54
2022/03/24 02:21:42;;;;;;;;;;;22.20;35.50;;;;;;5068418;28;20016;-55
2022/03/24 02:24:08;;;;;;;;;;;22.30;35.40;;;;;;5071183;28;20041;-54
2022/03/24 02:26:35;;;;;;;;;;;22.30;35.40;;;;;;5069865;28;19962;-54
2022/03/24 02:29:01;;;;;;;;;;;22.40;35.40;;;;;;5068591;28;19912;-54
2022/03/24 02:31:29;;;;;;;;;;;22.40;35.30;;;;;;5070936;28;19909;-54
2022/03/24 02:34:37;;;;;;;;;;;22.50;35.20;;;;;;5071055;28;19920;-54
2022/03/24 02:36:43;;;;;;;;;;;22.60;35.10;;;;;;5067670;28;20391;-55
2022/03/24 02:39:09;;;;;;;;;;;22.60;34.90;;;;;;5063199;28;19920;-55
2022/03/24 02:41:44;;;;;;;;;;;22.70;34.90;;;;;;5067609;28;19919;-53
2022/03/24 02:44:10;;;;;;;;;;;22.70;34.80;;;;;;5071070;28;19925;-54
2022/03/24 02:46:35;;;;;;;;;;;22.70;34.80;;;;;;5071655;28;20615;-55
2022/03/24 02:49:00;;;;;;;;;;;22.70;34.80;;;;;;5070197;28;20376;-53
2022/03/24 02:51:26;;;;;;;;;;;22.70;34.80;;;;;;5070413;28;20439;-53
2022/03/24 02:53:52;;;;;;;;;;;22.70;34.80;;;;;;5069806;28;19918;-55
2022/03/24 02:56:18;;;;;;;;;;;22.70;34.80;;;;;;5070073;28;20356;-54
2022/03/24 02:58:43;;;;;;;;;;;22.60;34.80;;;;;;5070823;28;19923;-54
2022/03/24 03:01:08;;;;;;;;;;;22.60;34.80;;;;;;5069362;28;20386;-54
2022/03/24 03:03:34;;;;;;;;;;;22.60;34.80;;;;;;5070415;28;19923;-53
2022/03/24 03:05:59;;;;;;;;;;;22.60;34.80;;;;;;5066969;28;19916;-54
2022/03/24 03:08:26;;;;;;;;;;;22.50;34.80;;;;;;5069893;28;20284;-55
2022/03/24 03:10:51;;;;;;;;;;;22.50;35.00;;;;;;5068180;28;19912;-54
2022/03/24 03:13:17;;;;;;;;;;;22.40;35.10;;;;;;5068578;28;19920;-53
2022/03/24 03:15:42;;;;;;;;;;;22.40;35.30;;;;;;5069380;28;19957;-54
2022/03/24 03:18:08;;;;;;;;;;;22.30;35.20;;;;;;5070010;28;19970;-53
2022/03/24 03:20:34;;;;;;;;;;;22.30;35.20;;;;;;5071052;28;19917;-53
2022/03/24 03:22:59;;;;;;;;;;;22.20;35.30;;;;;;5069994;28;20303;-53
2022/03/24 03:25:25;;;;;;;;;;;22.20;35.30;;;;;;5069844;28;19996;-54
2022/03/24 03:27:50;;;;;;;;;;;22.20;35.30;;;;;;5070290;28;19916;-53
2022/03/24 03:30:16;;;;;;;;;;;22.20;35.30;;;;;;5070095;28;19920;-53
2022/03/24 03:32:42;;;;;;;;;;;22.20;35.30;;;;;;5070142;28;19913;-53
2022/03/24 03:35:08;;;;;;;;;;;22.10;35.20;;;;;;5070223;28;20376;-53
2022/03/24 03:37:33;;;;;;;;;;;22.10;35.20;;;;;;5068464;28;19955;-54
2022/03/24 03:39:59;;;;;;;;;;;22.10;35.20;;;;;;5070351;28;19952;-53
2022/03/24 03:42:24;;;;;;;;;;;22.10;35.20;;;;;;5069385;28;19975;-54
2022/03/24 03:44:50;;;;;;;;;;;22.10;35.30;;;;;;5068784;28;20358;-54
2022/03/24 03:47:15;;;;;;;;;;;22.10;35.40;;;;;;5068296;28;20411;-53
2022/03/24 03:49:41;;;;;;;;;;;22.10;35.30;;;;;;5068598;28;20008;-53
2022/03/24 03:52:06;;;;;;;;;;;22.10;35.40;;;;;;5069421;28;20331;-54
2022/03/24 03:54:32;;;;;;;;;;;22.10;35.30;;;;;;5069185;28;19916;-54
2022/03/24 03:56:58;;;;;;;;;;;22.10;35.30;;;;;;5066942;28;19912;-54
2022/03/24 03:59:23;;;;;;;;;;;22.10;35.30;;;;;;5069246;28;19920;-54
2022/03/24 04:01:49;;;;;;;;;;;22.10;35.20;;;;;;5069243;28;19924;-54
2022/03/24 04:04:15;;;;;;;;;;;22.10;35.20;;;;;;5069357;28;19912;-54
2022/03/24 04:06:41;;;;;;;;;;;22.10;35.20;;;;;;5069055;28;19956;-54
2022/03/24 04:09:06;;;;;;;;;;;22.00;35.20;;;;;;5069223;28;20376;-54
2022/03/24 04:11:32;;;;;;;;;;;22.00;35.30;;;;;;5069597;28;19920;-54
2022/03/24 04:13:57;;;;;;;;;;;22.00;35.40;;;;;;5069116;28;19962;-54
2022/03/24 04:16:23;;;;;;;;;;;22.00;35.40;;;;;;5069546;28;19916;-54
2022/03/24 04:18:49;;;;;;;;;;;22.00;35.40;;;;;;5067874;28;20326;-54
2022/03/24 04:21:16;;;;;;;;;;;21.90;35.40;;;;;;5067696;28;20054;-54
2022/03/24 04:23:41;;;;;;;;;;;21.90;35.50;;;;;;5066513;28;20003;-54
2022/03/24 04:26:07;;;;;;;;;;;21.90;35.60;;;;;;5065256;28;19981;-54
2022/03/24 04:28:32;;;;;;;;;;;21.90;35.60;;;;;;5065985;28;20368;-54
2022/03/24 04:30:58;;;;;;;;;;;21.80;35.50;;;;;;5068983;28;20312;-55
2022/03/24 04:33:23;;;;;;;;;;;21.80;35.50;;;;;;5069579;28;19916;-54
2022/03/24 04:35:49;;;;;;;;;;;21.80;35.60;;;;;;5067883;28;20017;-55
2022/03/24 04:38:15;;;;;;;;;;;21.80;35.60;;;;;;5067399;28;20381;-54
2022/03/24 04:40:40;;;;;;;;;;;21.80;35.60;;;;;;5062544;28;20754;-54
2022/03/24 04:43:06;;;;;;;;;;;21.80;35.70;;;;;;5065404;28;19937;-54
2022/03/24 04:45:33;;;;;;;;;;;21.80;35.70;;;;;;5069289;28;19912;-55
2022/03/24 04:47:59;;;;;;;;;;;21.80;35.60;;;;;;5068546;28;19928;-54
2022/03/24 04:50:24;;;;;;;;;;;21.80;35.60;;;;;;5067482;28;19916;-54
2022/03/24 04:52:50;;;;;;;;;;;21.80;36.30;;;;;;5066819;28;19943;-54
2022/03/24 04:55:15;;;;;;;;;;;21.80;35.70;;;;;;5068805;28;20208;-54
2022/03/24 04:57:41;;;;;;;;;;;21.80;35.60;;;;;;5068001;28;19938;-54
2022/03/24 05:00:09;;;;;;;;;;;21.80;35.50;;;;;;5071247;28;19920;-54
2022/03/24 05:02:35;;;;;;;;;;;21.90;35.50;;;;;;5071892;28;20289;-54
2022/03/24 05:05:00;;;;;;;;;;;21.90;35.30;;;;;;5071864;28;19975;-54
2022/03/24 05:07:27;;;;;;;;;;;22.00;35.30;;;;;;5069467;28;19928;-55
2022/03/24 05:09:53;;;;;;;;;;;22.00;35.10;;;;;;5073069;28;20326;-54
2022/03/24 05:12:18;;;;;;;;;;;22.00;35.10;;;;;;5072835;28;19912;-54
2022/03/24 05:14:44;;;;;;;;;;;22.00;35.10;;;;;;5071706;28;19916;-54
2022/03/24 05:17:09;;;;;;;;;;;22.00;35.10;;;;;;5073446;28;19913;-54
2022/03/24 05:19:35;;;;;;;;;;;22.10;35.20;;;;;;5071643;28;19923;-55
2022/03/24 05:22:01;;;;;;;;;;;22.00;35.10;;;;;;5067229;28;19923;-54
2022/03/24 05:24:26;;;;;;;;;;;22.10;35.20;;;;;;5071017;28;19939;-54
2022/03/24 05:26:52;;;;;;;;;;;22.00;35.10;;;;;;5070524;28;19912;-54
2022/03/24 05:29:17;;;;;;;;;;;22.00;35.10;;;;;;5071381;28;19919;-54
2022/03/24 05:31:43;;;;;;;;;;;22.00;35.10;;;;;;5070274;28;19920;-55
2022/03/24 05:34:08;;;;;;;;;;;22.00;35.10;;;;;;5072059;28;20409;-54
2022/03/24 05:36:33;;;;;;;;;;;21.90;35.00;;;;;;5072126;28;19917;-53
2022/03/24 05:38:59;;;;;;;;;;;21.90;35.20;;;;;;5069260;28;19935;-54
2022/03/24 05:41:24;;;;;;;;;;;21.90;35.30;;;;;;5073471;28;19988;-53
2022/03/24 05:44:06;;;;;;;;;;;21.80;35.40;;;;;;5071808;28;19920;-54
2022/03/24 05:46:32;;;;;;;;;;;21.80;35.40;;;;;;5070132;28;19919;-54
2022/03/24 05:48:58;;;;;;;;;;;21.80;35.50;;;;;;5071519;28;19913;-54
2022/03/24 05:51:23;;;;;;;;;;;21.70;35.40;;;;;;5071724;28;20027;-55
2022/03/24 05:53:49;;;;;;;;;;;21.80;35.60;;;;;;5070611;28;20364;-54
2022/03/24 05:56:14;;;;;;;;;;;21.70;35.50;;;;;;5070994;28;20424;-53
2022/03/24 05:58:40;;;;;;;;;;;21.70;35.50;;;;;;5070687;28;19912;-53
2022/03/24 06:01:05;;;;;;;;;;;21.70;35.50;;;;;;5072064;28;19913;-55
2022/03/24 06:03:31;;;;;;;;;;;21.70;35.40;;;;;;5070458;28;19977;-54
2022/03/24 06:05:58;;;;;;;;;;;21.80;35.30;;;;;;5070992;28;20376;-54
2022/03/24 06:08:24;;;;;;;;;;;21.80;35.10;;;;;;5070041;28;19924;-54
2022/03/24 06:10:51;;;;;;;;;;;21.90;35.00;;;;;;5066517;28;19999;-53
2022/03/24 06:13:17;;;;;;;;;;;22.00;35.10;;;;;;5071773;28;19916;-54
2022/03/24 06:15:42;;;;;;;;;;;22.00;35.10;;;;;;5069658;28;20011;-55
2022/03/24 06:18:08;;;;;;;;;;;22.00;35.10;;;;;;5071105;28;20039;-55
2022/03/24 06:20:33;;;;;;;;;;;22.00;35.10;;;;;;5071261;28;19916;-53
2022/03/24 06:22:58;;;;;;;;;;;22.00;35.10;;;;;;5067952;28;19921;-54
2022/03/24 06:25:24;;;;;;;;;;;22.00;35.10;;;;;;5070674;28;20323;-54
2022/03/24 06:27:53;;;;;;;;;;;22.00;35.10;;;;;;5069241;28;19916;-54
2022/03/24 06:30:19;;;;;;;;;;;22.00;35.10;;;;;;5069412;28;19973;-54
2022/03/24 06:32:44;;;;;;;;;;;21.90;35.10;;;;;;5070775;28;19917;-54
2022/03/24 06:35:11;;;;;;;;;;;21.90;35.00;;;;;;5068673;28;20395;-54
2022/03/24 06:37:40;;;;;;;;;;;21.90;35.00;;;;;;5069908;28;19916;-54
2022/03/24 06:40:09;;;;;;;;;;;21.90;35.00;;;;;;5069042;28;19913;-54
2022/03/24 06:42:34;;;;;;;;;;;21.90;35.00;;;;;;5065275;28;19920;-54
2022/03/24 06:44:59;;;;;;;;;;;21.80;34.90;;;;;;5071604;28;20007;-54
2022/03/24 06:47:25;;;;;;;;;;;21.80;34.90;;;;;;5070437;28;20395;-54
2022/03/24 06:49:50;;;;;;;;;;;21.80;34.90;;;;;;5068841;28;20011;-54
2022/03/24 06:52:16;;;;;;;;;;;21.80;34.80;;;;;;5069629;28;19916;-54
2022/03/24 06:54:41;;;;;;;;;;;21.80;34.50;;;;;;5070211;28;19912;-54
2022/03/24 06:57:07;;;;;;;;;;;21.80;34.20;;;;;;5070399;28;20018;-54
2022/03/24 06:59:33;;;;;;;;;;;21.70;34.10;;;;;;5069687;28;19951;-55
2022/03/24 07:01:59;;;;;;;;;;;21.70;33.80;;;;;;5069182;28;19920;-55
2022/03/24 07:04:24;;;;;;;;;;;21.70;33.70;;;;;;5068282;28;19917;-54
2022/03/24 07:06:49;;;;;;;;;;;21.70;33.70;;;;;;5065730;28;19916;-54
2022/03/24 07:09:15;;;;;;;;;;;21.70;33.70;;;;;;5069674;28;19919;-54
2022/03/24 07:11:40;;;;;;;;;;;21.80;33.60;;;;;;5069432;28;19909;-54
2022/03/24 07:14:06;;;;;;;;;;;21.80;33.50;;;;;;5068242;28;19967;-55
2022/03/24 07:16:31;;;;;;;;;;;21.90;33.30;;;;;;5068532;28;19912;-55
2022/03/24 07:18:57;;;;;;;;;;;21.90;33.10;;;;;;5065296;28;19917;-54
2022/03/24 07:21:22;;;;;;;;;;;21.90;33.00;;;;;;5067151;28;19920;-53
2022/03/24 07:23:48;;;;;;;;;;;21.90;33.00;;;;;;5068488;28;20113;-55
2022/03/24 07:26:13;;;;;;;;;;;21.90;32.90;;;;;;5069053;28;20327;-55
2022/03/24 07:28:38;;;;;;;;;;;21.80;32.80;;;;;;5063587;28;19913;-54
2022/03/24 07:31:07;;;;;;;;;;;21.80;32.80;;;;;;5065382;28;19921;-54
2022/03/24 07:33:33;;;;;;;;;;;21.80;32.80;;;;;;5060549;28;19913;-54
2022/03/24 07:35:58;;;;;;;;;;;21.80;33.00;;;;;;5065648;28;19923;-54
2022/03/24 07:38:24;;;;;;;;;;;21.80;33.80;;;;;;5059838;28;19919;-55
2022/03/24 07:40:49;;;;;;;;;;;21.80;34.00;;;;;;5059828;28;19917;-55
2022/03/24 07:43:15;;;;;;;;;;;21.90;34.20;;;;;;5060075;28;19923;-55
2022/03/24 07:45:40;;;;;;;;;;;22.00;34.20;;;;;;5067340;28;20035;-55
2022/03/24 07:48:16;;;;;;;;;;;22.10;34.10;;;;;;5065198;28;19963;-56
2022/03/24 07:50:43;;;;;;;;;;;22.20;34.00;;;;;;5066227;28;20451;-55
2022/03/24 07:53:11;;;;;;;;;;;22.40;34.00;;;;;;5058439;28;19913;-53
2022/03/24 07:55:37;;;;;;;;;;;22.50;33.80;;;;;;5066406;28;19923;-53
2022/03/24 07:58:03;;;;;;;;;;;22.80;33.50;;;;;;5060650;28;20007;-54
2022/03/24 08:00:28;;;;;;;;;;;23.00;33.30;;;;;;5064901;28;19912;-56
2022/03/24 08:02:53;;;;;;;;;;;23.30;33.10;;;;;;5056667;28;20503;-55
2022/03/24 08:05:19;;;;;;;;;;;23.40;32.90;;;;;;5060882;28;20259;-55
2022/03/24 08:07:44;;;;;;;;;;;23.60;32.70;;;;;;5070132;28;19935;-55
2022/03/24 08:10:10;;;;;;;;;;;23.70;32.50;;;;;;5068841;28;19933;-55
2022/03/24 08:12:35;;;;;;;;;;;23.80;32.50;;;;;;5059860;28;19916;-57
2022/03/24 08:15:01;;;;;;;;;;;23.80;32.30;;;;;;5058345;28;19968;-55
2022/03/24 08:17:26;;;;;;;;;;;23.90;32.40;;;;;;5058714;28;19912;-54
2022/03/24 08:19:52;;;;;;;;;;;24.00;32.40;;;;;;5066371;28;19948;-54
2022/03/24 08:22:17;;;;;;;;;;;24.00;32.30;;;;;;5065733;28;19931;-55
2022/03/24 08:24:43;;;;;;;;;;;24.10;32.30;;;;;;5058170;28;20415;-54
2022/03/24 08:27:08;;;;;;;;;;;24.10;32.20;;;;;;5070334;28;20387;-55
2022/03/24 08:29:33;;;;;;;;;;;24.20;32.20;;;;;;5072696;28;19912;-54
2022/03/24 08:31:59;;;;;;;;;;;24.10;32.20;;;;;;5065336;28;19912;-55
2022/03/24 08:34:24;;;;;;;;;;;24.10;32.30;;;;;;5071000;28;19920;-55
2022/03/24 08:36:50;;;;;;;;;;;24.10;32.40;;;;;;5071817;28;19913;-55
2022/03/24 08:39:15;;;;;;;;;;;24.00;32.50;;;;;;5058004;28;19921;-54
2022/03/24 08:41:41;;;;;;;;;;;23.90;32.60;;;;;;5055061;28;19963;-54
2022/03/24 08:44:06;;;;;;;;;;;23.80;32.70;;;;;;5070410;28;20023;-54
2022/03/24 08:46:31;;;;;;;;;;;23.80;32.90;;;;;;5058570;28;19913;-54
2022/03/24 08:48:58;;;;;;;;;;;23.80;33.00;;;;;;5066472;28;19973;-54
2022/03/24 08:51:23;;;;;;;;;;;23.70;32.90;;;;;;5065874;28;19941;-55
2022/03/24 08:53:49;;;;;;;;;;;23.70;33.20;;;;;;5066480;28;19917;-55
2022/03/24 08:56:14;;;;;;;;;;;23.70;33.30;;;;;;5069511;28;19912;-55
2022/03/24 08:58:40;;;;;;;;;;;23.70;33.40;;;;;;5064373;28;19920;-54
2022/03/24 09:01:05;;;;;;;;;;;23.70;33.50;;;;;;5071055;28;20050;-55
2022/03/24 09:03:31;;;;;;;;;;;23.70;33.60;;;;;;5067257;28;19952;-55
2022/03/24 09:05:56;;;;;;;;;;;23.70;33.70;;;;;;5071377;28;19920;-54
2022/03/24 09:08:22;;;;;;;;;;;23.80;33.70;;;;;;5066901;28;19920;-54
2022/03/24 09:10:50;;;;;;;;;;;23.80;33.40;;;;;;5071965;28;19912;-54
2022/03/24 09:13:16;;;;;;;;;;;23.90;33.30;;;;;;5055017;28;19913;-55
2022/03/24 09:15:43;;;;;;;;;;;24.00;33.40;;;;;;5056628;28;20399;-54
2022/03/24 09:18:10;;;;;;;;;;;24.00;33.30;;;;;;5063894;28;20019;-53
2022/03/24 09:20:35;;;;;;;;;;;24.10;33.50;;;;;;5061729;28;19913;-55
2022/03/24 09:23:00;;;;;;;;;;;24.10;33.20;;;;;;5071102;28;19919;-56
2022/03/24 09:25:26;;;;;;;;;;;24.10;33.20;;;;;;5070789;28;19946;-54
2022/03/24 09:27:51;;;;;;;;;;;24.20;33.20;;;;;;5070103;28;19913;-55
2022/03/24 09:30:18;;;;;;;;;;;24.20;33.20;;;;;;5068025;28;20030;-54
2022/03/24 09:32:45;;;;;;;;;;;24.20;33.20;;;;;;5066868;28;19913;-54
2022/03/24 09:35:11;;;;;;;;;;;24.20;33.20;;;;;;5071694;28;19916;-55
2022/03/24 09:37:36;;;;;;;;;;;24.10;33.40;;;;;;5066256;28;19923;-55
2022/03/24 09:40:02;;;;;;;;;;;24.10;33.50;;;;;;5067449;28;19952;-54
2022/03/24 09:42:28;;;;;;;;;;;24.10;33.60;;;;;;5061408;28;20344;-55
2022/03/24 09:44:56;;;;;;;;;;;24.10;33.70;;;;;;5058392;28;20066;-54
2022/03/24 09:47:21;;;;;;;;;;;24.00;33.60;;;;;;5072521;28;19908;-55
2022/03/24 09:49:47;;;;;;;;;;;24.00;33.80;;;;;;5066812;28;19923;-54
2022/03/24 09:52:12;;;;;;;;;;;24.00;33.80;;;;;;5072733;28;19923;-56
2022/03/24 09:54:39;;;;;;;;;;;24.00;33.90;;;;;;5068390;28;19913;-54
2022/03/24 09:57:05;;;;;;;;;;;24.00;33.90;;;;;;5066767;28;19916;-54
2022/03/24 09:59:30;;;;;;;;;;;24.00;33.90;;;;;;5076946;28;20629;-55
2022/03/24 10:01:55;;;;;;;;;;;24.00;34.00;;;;;;5068314;28;19952;-53
2022/03/24 10:04:21;;;;;;;;;;;24.00;34.00;;;;;;5064777;28;19959;-55
2022/03/24 10:06:58;;;;;;;;;;;24.00;34.00;;;;;;5064345;28;19958;-54
2022/03/24 10:09:36;;;;;;;;;;;24.00;34.10;;;;;;5073785;28;19940;-54
2022/03/24 10:12:02;;;;;;;;;;;24.00;34.10;;;;;;5074700;28;20413;-55
2022/03/24 10:14:28;;;;;;;;;;;24.00;34.10;;;;;;5069081;28;19955;-54
2022/03/24 10:16:53;;;;;;;;;;;24.00;34.10;;;;;;5069564;28;20319;-54
2022/03/24 10:19:19;;;;;;;;;;;24.00;34.10;;;;;;5074086;28;20000;-55
2022/03/24 10:21:49;;;;;;;;;;;24.10;34.20;;;;;;5074330;28;19909;-56
2022/03/24 10:24:14;;;;;;;;;;;24.00;34.10;;;;;;5074272;28;20334;-54
2022/03/24 10:26:41;;;;;;;;;;;24.10;34.10;;;;;;5071861;28;19913;-55
2022/03/24 10:29:07;;;;;;;;;;;24.30;34.10;;;;;;5065611;28;19909;-55
2022/03/24 10:31:33;;;;;;;;;;;24.40;33.90;;;;;;5070777;28;20319;-55
2022/03/24 10:33:59;;;;;;;;;;;24.40;33.80;;;;;;5069537;28;19916;-54
2022/03/24 10:36:26;;;;;;;;;;;24.50;33.80;;;;;;5070249;28;19920;-55
2022/03/24 10:38:56;;;;;;;;;;;24.50;33.80;;;;;;5072469;28;19919;-55
2022/03/24 10:41:26;;;;;;;;;;;24.50;33.80;;;;;;5069949;28;19920;-56
2022/03/24 10:43:52;;;;;;;;;;;24.40;33.90;;;;;;5068192;28;20355;-54
2022/03/24 10:46:19;;;;;;;;;;;24.40;34.00;;;;;;5065577;28;19921;-55
2022/03/24 10:48:44;;;;;;;;;;;24.40;34.10;;;;;;5060937;28;20380;-54
2022/03/24 10:51:10;;;;;;;;;;;24.40;34.10;;;;;;5066056;28;19913;-55
2022/03/24 10:53:39;;;;;;;;;;;24.30;34.10;;;;;;5066950;28;19919;-55
2022/03/24 10:56:16;;;;;;;;;;;24.30;34.30;;;;;;5072240;28;19991;-54
2022/03/24 10:58:47;;;;;;;;;;;24.30;34.30;;;;;;5071530;28;19947;-55
2022/03/24 11:01:14;;;;;;;;;;;24.30;34.20;;;;;;5073527;28;20288;-55
2022/03/24 11:03:40;;;;;;;;;;;24.50;34.20;;;;;;5072438;28;19923;-55
2022/03/24 11:06:08;;;;;;;;;;;24.50;34.00;;;;;;5072993;28;19916;-55
2022/03/24 11:08:34;;;;;;;;;;;24.60;33.90;;;;;;5071306;28;19982;-55
2022/03/24 11:10:59;;;;;;;;;;;24.60;33.90;;;;;;5073583;28;19912;-56
2022/03/24 11:13:25;;;;;;;;;;;24.60;33.90;;;;;;5068145;28;20286;-55
2022/03/24 11:15:51;;;;;;;;;;;24.50;33.90;;;;;;5070946;28;19912;-55
2022/03/24 11:18:17;;;;;;;;;;;24.50;33.90;;;;;;5070734;28;19920;-54
2022/03/24 11:20:42;;;;;;;;;;;24.50;33.80;;;;;;5071357;28;19934;-55
2022/03/24 11:23:12;;;;;;;;;;;24.50;33.80;;;;;;5063530;28;19920;-54
2022/03/24 11:25:37;;;;;;;;;;;24.50;33.80;;;;;;5065894;28;19970;-54
2022/03/24 11:28:03;;;;;;;;;;;24.50;33.90;;;;;;5066793;28;19917;-54
2022/03/24 11:30:29;;;;;;;;;;;24.50;34.00;;;;;;5066478;28;19927;-56
2022/03/24 11:32:54;;;;;;;;;;;24.50;33.90;;;;;;5071526;28;19912;-56
2022/03/24 11:35:20;;;;;;;;;;;24.50;33.90;;;;;;5074386;28;20348;-54
2022/03/24 11:37:45;;;;;;;;;;;24.50;34.00;;;;;;5064996;28;19908;-55
2022/03/24 11:40:12;;;;;;;;;;;24.40;34.00;;;;;;5069718;28;19916;-53
2022/03/24 11:42:42;;;;;;;;;;;24.50;34.10;;;;;;5068519;28;19927;-55
2022/03/24 11:45:17;;;;;;;;;;;24.50;34.10;;;;;;5069210;28;20311;-54
2022/03/24 11:47:48;;;;;;;;;;;24.50;34.00;;;;;;5071941;28;20043;-54
2022/03/24 11:50:17;;;;;;;;;;;24.40;33.90;;;;;;5064675;28;19928;-53
2022/03/24 11:52:42;;;;;;;;;;;24.40;33.90;;;;;;5070453;28;20368;-53
2022/03/24 11:55:14;;;;;;;;;;;24.40;33.90;;;;;;5060142;28;19928;-55
2022/03/24 11:57:41;;;;;;;;;;;24.40;33.80;;;;;;5061893;28;19944;-55
2022/03/24 12:00:12;;;;;;;;;;;24.40;33.80;;;;;;5073505;28;20218;-54
2022/03/24 12:02:38;;;;;;;;;;;24.40;33.80;;;;;;5071974;28;20019;-54
2022/03/24 12:05:04;;;;;;;;;;;24.40;33.90;;;;;;5065909;28;19951;-53
2022/03/24 12:07:29;;;;;;;;;;;24.40;33.80;;;;;;5071429;28;19935;-54
2022/03/24 12:10:02;;;;;;;;;;;24.40;33.80;;;;;;5067407;28;20002;-53
2022/03/24 12:12:28;;;;;;;;;;;24.50;33.80;;;;;;5067684;28;19920;-54
2022/03/24 12:14:54;;;;;;;;;;;24.50;33.70;;;;;;5071828;28;20291;-54
2022/03/24 12:17:23;;;;;;;;;;;24.50;33.60;;;;;;5072031;28;20330;-55
2022/03/24 12:19:55;;;;;;;;;;;24.50;34.20;;;;;;5071330;28;20372;-55
2022/03/24 12:22:28;;;;;;;;;;;24.50;33.40;;;;;;5069811;28;19917;-53
2022/03/24 12:24:59;;;;;;;;;;;24.60;33.40;;;;;;5072855;28;19943;-56
2022/03/24 12:27:29;;;;;;;;;;;24.70;33.40;;;;;;5070987;28;20004;-55
2022/03/24 12:30:13;;;;;;;;;;;24.70;33.20;;;;;;5070598;28;19916;-55
2022/03/24 12:32:38;;;;;;;;;;;24.80;33.10;;;;;;5066646;28;19912;-54
2022/03/24 12:35:04;;;;;;;;;;;24.90;33.00;;;;;;5072632;28;20376;-55
2022/03/24 12:37:32;;;;;;;;;;;24.90;33.60;;;;;;5071097;28;19956;-56
2022/03/24 12:40:08;;;;;;;;;;;24.90;32.90;;;;;;5067983;28;19999;-55
2022/03/24 12:42:46;;;;;;;;;;;24.90;33.00;;;;;;5066599;28;20019;-55
2022/03/24 12:45:26;;;;;;;;;;;24.90;33.10;;;;;;5069674;28;19915;-55
2022/03/24 12:47:54;;;;;;;;;;;24.90;33.00;;;;;;5067223;28;19912;-55
2022/03/24 12:50:20;;;;;;;;;;;24.90;33.00;;;;;;5063261;28;20287;-55
2022/03/24 12:52:49;;;;;;;;;;;25.00;33.00;;;;;;5060728;28;19912;-54
2022/03/24 12:55:27;;;;;;;;;;;25.10;33.10;;;;;;5059307;28;19970;-56
2022/03/24 12:57:56;;;;;;;;;;;25.10;32.90;;;;;;5066445;28;20390;-55
2022/03/24 13:00:24;;;;;;;;;;;25.10;32.90;;;;;;5065016;28;19920;-55
2022/03/24 13:02:49;;;;;;;;;;;25.10;32.90;;;;;;5063165;28;19921;-55
2022/03/24 13:05:20;;;;;;;;;;;25.00;32.90;;;;;;5068725;28;19976;-53
2022/03/24 13:07:47;;;;;;;;;;;25.00;33.00;;;;;;5063064;28;19920;-53
2022/03/24 13:10:14;;;;;;;;;;;25.00;33.00;;;;;;5071772;28;19913;-53
2022/03/24 13:12:47;;;;;;;;;;;25.00;33.10;;;;;;5064369;28;19916;-56
2022/03/24 13:15:18;;;;;;;;;;;25.00;33.30;;;;;;5070398;28;19913;-56
2022/03/24 13:17:48;;;;;;;;;;;24.90;33.20;;;;;;5070109;28;20284;-55
2022/03/24 13:20:14;;;;;;;;;;;24.90;33.50;;;;;;5058623;28;19918;-56
2022/03/24 13:22:40;;;;;;;;;;;24.90;33.50;;;;;;5074227;28;20395;-54
2022/03/24 13:25:07;;;;;;;;;;;24.90;33.50;;;;;;5075516;28;19913;-57
2022/03/24 13:27:36;;;;;;;;;;;24.90;33.60;;;;;;5070772;28;19920;-54
2022/03/24 13:30:08;;;;;;;;;;;24.90;33.50;;;;;;5074969;28;19909;-55
2022/03/24 13:32:33;;;;;;;;;;;24.90;33.50;;;;;;5063681;28;20013;-55
2022/03/24 13:35:00;;;;;;;;;;;24.90;33.60;;;;;;5068793;28;20020;-54
2022/03/24 13:37:30;;;;;;;;;;;24.80;33.60;;;;;;5070874;28;20663;-55
2022/03/24 13:39:56;;;;;;;;;;;24.80;33.70;;;;;;5073124;28;20387;-55
2022/03/24 13:42:22;;;;;;;;;;;24.90;33.80;;;;;;5072221;28;19912;-54
2022/03/24 13:44:48;;;;;;;;;;;24.80;33.80;;;;;;5071227;28;19927;-54
2022/03/24 13:47:14;;;;;;;;;;;24.90;33.90;;;;;;5074349;28;19912;-54
2022/03/24 13:49:39;;;;;;;;;;;24.90;33.80;;;;;;5072267;28;19909;-55
2022/03/24 13:52:05;;;;;;;;;;;24.80;33.60;;;;;;5064907;28;19909;-56
2022/03/24 13:54:31;;;;;;;;;;;24.80;33.60;;;;;;5054340;28;19909;-55
2022/03/24 13:56:57;;;;;;;;;;;24.80;33.80;;;;;;5058072;28;19916;-54
2022/03/24 13:59:26;;;;;;;;;;;24.80;33.80;;;;;;5055347;28;19913;-54
2022/03/24 14:01:55;;;;;;;;;;;24.80;33.70;;;;;;5055285;28;19967;-54
2022/03/24 14:04:21;;;;;;;;;;;24.90;33.90;;;;;;5068152;28;20031;-55
2022/03/24 14:07:03;;;;;;;;;;;24.90;33.80;;;;;;5055279;28;20003;-54
2022/03/24 14:09:29;;;;;;;;;;;24.90;33.80;;;;;;5054155;28;19916;-55
2022/03/24 14:12:04;;;;;;;;;;;24.90;33.80;;;;;;5056453;28;19918;-55